sensor_id;sensor_type;location;lat;lon;timestamp;P1;durP1;ratioP1;P2;durP2;ratioP2
5085;SDS011;4715;51.660;7.082;2024-01-11T00:00:10;23.40;;;11.80;;
5085;SDS011;4715;51.660;7.082;2024-01-11T00:02:32;25.03;;;12.77;;
5085;SDS011;4715;51.660;7.082;2024-01-11T00:04:54;20.50;;;11.93;;
5085;SDS011;4715;51.660;7.082;2024-01-11T00:07:17;17.47;;;10.77;;
5085;SDS011;4715;51.660;7.082;2024-01-11T00:09:41;21.73;;;11.17;;
5085;SDS011;4715;51.660;7.082;2024-01-11T00:12:03;18.30;;;10.37;;
5085;SDS011;4715;51.660;7.082;2024-01-11T00:14:26;20.57;;;11.30;;
5085;SDS011;4715;51.660;7.082;2024-01-11T00:16:46;23.30;;;12.20;;
5085;SDS011;4715;51.660;7.082;2024-01-11T00:19:10;13.67;;;10.07;;
5085;SDS011;4715;51.660;7.082;2024-01-11T00:21:32;19.23;;;10.63;;
5085;SDS011;4715;51.660;7.082;2024-01-11T00:23:55;18.37;;;10.10;;
5085;SDS011;4715;51.660;7.082;2024-01-11T00:26:19;20.20;;;9.57;;
5085;SDS011;4715;51.660;7.082;2024-01-11T00:28:40;21.93;;;11.07;;
5085;SDS011;4715;51.660;7.082;2024-01-11T00:31:02;17.80;;;10.60;;
5085;SDS011;4715;51.660;7.082;2024-01-11T00:33:24;19.00;;;11.70;;
5085;SDS011;4715;51.660;7.082;2024-01-11T00:35:46;19.57;;;10.13;;
5085;SDS011;4715;51.660;7.082;2024-01-11T00:38:08;22.00;;;11.73;;
5085;SDS011;4715;51.660;7.082;2024-01-11T00:40:31;17.97;;;10.80;;
5085;SDS011;4715;51.660;7.082;2024-01-11T00:42:53;18.63;;;11.53;;
5085;SDS011;4715;51.660;7.082;2024-01-11T00:45:15;22.07;;;11.30;;
5085;SDS011;4715;51.660;7.082;2024-01-11T00:47:36;23.50;;;11.47;;
5085;SDS011;4715;51.660;7.082;2024-01-11T00:49:58;22.73;;;11.53;;
5085;SDS011;4715;51.660;7.082;2024-01-11T00:52:20;18.63;;;10.27;;
5085;SDS011;4715;51.660;7.082;2024-01-11T00:54:43;21.33;;;9.87;;
5085;SDS011;4715;51.660;7.082;2024-01-11T00:57:06;19.83;;;9.83;;
5085;SDS011;4715;51.660;7.082;2024-01-11T00:59:28;18.50;;;10.60;;
5085;SDS011;4715;51.660;7.082;2024-01-11T01:01:50;20.33;;;11.03;;
5085;SDS011;4715;51.660;7.082;2024-01-11T01:04:12;19.53;;;10.20;;
5085;SDS011;4715;51.660;7.082;2024-01-11T01:06:34;17.80;;;10.40;;
5085;SDS011;4715;51.660;7.082;2024-01-11T01:08:56;17.40;;;9.17;;
5085;SDS011;4715;51.660;7.082;2024-01-11T01:11:18;19.47;;;10.57;;
5085;SDS011;4715;51.660;7.082;2024-01-11T01:13:41;17.00;;;10.50;;
5085;SDS011;4715;51.660;7.082;2024-01-11T01:16:05;20.43;;;10.50;;
5085;SDS011;4715;51.660;7.082;2024-01-11T01:18:26;23.87;;;10.80;;
5085;SDS011;4715;51.660;7.082;2024-01-11T01:20:48;18.80;;;10.50;;
5085;SDS011;4715;51.660;7.082;2024-01-11T01:23:10;17.97;;;10.77;;
5085;SDS011;4715;51.660;7.082;2024-01-11T01:25:32;19.27;;;11.10;;
5085;SDS011;4715;51.660;7.082;2024-01-11T01:27:53;19.07;;;10.90;;
5085;SDS011;4715;51.660;7.082;2024-01-11T01:30:19;19.60;;;11.20;;
5085;SDS011;4715;51.660;7.082;2024-01-11T01:32:41;27.63;;;13.20;;
5085;SDS011;4715;51.660;7.082;2024-01-11T01:35:04;14.53;;;11.00;;
5085;SDS011;4715;51.660;7.082;2024-01-11T01:37:29;19.67;;;11.80;;
5085;SDS011;4715;51.660;7.082;2024-01-11T01:39:50;22.63;;;11.50;;
5085;SDS011;4715;51.660;7.082;2024-01-11T01:42:12;18.77;;;10.27;;
5085;SDS011;4715;51.660;7.082;2024-01-11T01:44:34;19.33;;;11.47;;
5085;SDS011;4715;51.660;7.082;2024-01-11T01:46:58;19.33;;;12.60;;
5085;SDS011;4715;51.660;7.082;2024-01-11T01:49:20;24.03;;;12.40;;
5085;SDS011;4715;51.660;7.082;2024-01-11T01:51:42;35.33;;;14.20;;
5085;SDS011;4715;51.660;7.082;2024-01-11T01:54:03;27.80;;;15.87;;
5085;SDS011;4715;51.660;7.082;2024-01-11T01:56:26;24.53;;;14.43;;
5085;SDS011;4715;51.660;7.082;2024-01-11T01:58:50;32.27;;;15.00;;
5085;SDS011;4715;51.660;7.082;2024-01-11T02:01:13;31.37;;;14.73;;
5085;SDS011;4715;51.660;7.082;2024-01-11T02:03:40;31.80;;;16.03;;
5085;SDS011;4715;51.660;7.082;2024-01-11T02:06:04;30.63;;;14.40;;
5085;SDS011;4715;51.660;7.082;2024-01-11T02:08:27;33.97;;;16.20;;
5085;SDS011;4715;51.660;7.082;2024-01-11T02:10:49;31.97;;;16.10;;
5085;SDS011;4715;51.660;7.082;2024-01-11T02:13:11;30.30;;;16.80;;
5085;SDS011;4715;51.660;7.082;2024-01-11T02:15:32;32.47;;;16.30;;
5085;SDS011;4715;51.660;7.082;2024-01-11T02:17:54;29.47;;;15.53;;
5085;SDS011;4715;51.660;7.082;2024-01-11T02:20:17;30.40;;;15.23;;
5085;SDS011;4715;51.660;7.082;2024-01-11T02:22:38;28.90;;;14.70;;
5085;SDS011;4715;51.660;7.082;2024-01-11T02:25:06;28.60;;;15.37;;
5085;SDS011;4715;51.660;7.082;2024-01-11T02:27:28;28.33;;;12.57;;
5085;SDS011;4715;51.660;7.082;2024-01-11T02:29:53;28.27;;;14.47;;
5085;SDS011;4715;51.660;7.082;2024-01-11T02:32:14;28.27;;;14.23;;
5085;SDS011;4715;51.660;7.082;2024-01-11T02:34:36;25.60;;;15.43;;
5085;SDS011;4715;51.660;7.082;2024-01-11T02:36:58;27.73;;;13.63;;
5085;SDS011;4715;51.660;7.082;2024-01-11T02:39:21;30.77;;;16.77;;
5085;SDS011;4715;51.660;7.082;2024-01-11T02:41:46;26.43;;;15.80;;
5085;SDS011;4715;51.660;7.082;2024-01-11T02:44:10;30.17;;;13.83;;
5085;SDS011;4715;51.660;7.082;2024-01-11T02:46:32;35.73;;;16.67;;
5085;SDS011;4715;51.660;7.082;2024-01-11T02:48:54;22.33;;;13.50;;
5085;SDS011;4715;51.660;7.082;2024-01-11T02:51:16;27.13;;;15.20;;
5085;SDS011;4715;51.660;7.082;2024-01-11T02:53:38;31.37;;;14.93;;
5085;SDS011;4715;51.660;7.082;2024-01-11T02:56:00;30.83;;;15.10;;
5085;SDS011;4715;51.660;7.082;2024-01-11T02:58:23;36.63;;;14.87;;
5085;SDS011;4715;51.660;7.082;2024-01-11T03:00:45;29.50;;;14.63;;
5085;SDS011;4715;51.660;7.082;2024-01-11T03:03:06;29.13;;;14.03;;
5085;SDS011;4715;51.660;7.082;2024-01-11T03:05:28;32.77;;;15.80;;
5085;SDS011;4715;51.660;7.082;2024-01-11T03:07:50;30.97;;;15.00;;
5085;SDS011;4715;51.660;7.082;2024-01-11T03:10:13;30.90;;;15.83;;
5085;SDS011;4715;51.660;7.082;2024-01-11T03:12:34;24.73;;;14.10;;
5085;SDS011;4715;51.660;7.082;2024-01-11T03:14:58;25.77;;;14.47;;
5085;SDS011;4715;51.660;7.082;2024-01-11T03:17:20;29.03;;;14.47;;
5085;SDS011;4715;51.660;7.082;2024-01-11T03:19:42;30.57;;;14.77;;
5085;SDS011;4715;51.660;7.082;2024-01-11T03:22:03;22.90;;;13.80;;
5085;SDS011;4715;51.660;7.082;2024-01-11T03:24:26;31.80;;;16.90;;
5085;SDS011;4715;51.660;7.082;2024-01-11T03:26:49;33.27;;;15.30;;
5085;SDS011;4715;51.660;7.082;2024-01-11T03:29:11;39.50;;;18.47;;
5085;SDS011;4715;51.660;7.082;2024-01-11T03:31:34;29.10;;;16.50;;
5085;SDS011;4715;51.660;7.082;2024-01-11T03:33:58;36.67;;;17.27;;
5085;SDS011;4715;51.660;7.082;2024-01-11T03:36:22;33.07;;;18.30;;
5085;SDS011;4715;51.660;7.082;2024-01-11T03:38:45;33.00;;;17.73;;
5085;SDS011;4715;51.660;7.082;2024-01-11T03:41:07;28.63;;;15.50;;
5085;SDS011;4715;51.660;7.082;2024-01-11T03:43:29;35.77;;;18.33;;
5085;SDS011;4715;51.660;7.082;2024-01-11T03:45:51;31.70;;;15.63;;
5085;SDS011;4715;51.660;7.082;2024-01-11T03:48:14;33.70;;;15.70;;
5085;SDS011;4715;51.660;7.082;2024-01-11T03:50:36;41.07;;;17.37;;
5085;SDS011;4715;51.660;7.082;2024-01-11T03:52:58;29.93;;;15.60;;
5085;SDS011;4715;51.660;7.082;2024-01-11T03:55:20;29.10;;;15.60;;
5085;SDS011;4715;51.660;7.082;2024-01-11T03:57:43;28.90;;;16.90;;
5085;SDS011;4715;51.660;7.082;2024-01-11T04:00:05;33.87;;;16.00;;
5085;SDS011;4715;51.660;7.082;2024-01-11T04:02:29;28.50;;;14.90;;
5085;SDS011;4715;51.660;7.082;2024-01-11T04:04:52;28.93;;;16.17;;
5085;SDS011;4715;51.660;7.082;2024-01-11T04:07:16;32.23;;;15.67;;
5085;SDS011;4715;51.660;7.082;2024-01-11T04:09:38;33.00;;;14.60;;
5085;SDS011;4715;51.660;7.082;2024-01-11T04:12:00;22.80;;;13.77;;
5085;SDS011;4715;51.660;7.082;2024-01-11T04:14:24;27.40;;;13.67;;
5085;SDS011;4715;51.660;7.082;2024-01-11T04:16:46;26.87;;;14.37;;
5085;SDS011;4715;51.660;7.082;2024-01-11T04:19:08;25.83;;;13.83;;
5085;SDS011;4715;51.660;7.082;2024-01-11T04:21:32;23.83;;;12.80;;
5085;SDS011;4715;51.660;7.082;2024-01-11T04:23:53;20.10;;;12.83;;
5085;SDS011;4715;51.660;7.082;2024-01-11T04:26:16;24.30;;;12.93;;
5085;SDS011;4715;51.660;7.082;2024-01-11T04:28:38;26.70;;;13.60;;
5085;SDS011;4715;51.660;7.082;2024-01-11T04:30:59;26.13;;;12.53;;
5085;SDS011;4715;51.660;7.082;2024-01-11T04:33:21;18.23;;;11.67;;
5085;SDS011;4715;51.660;7.082;2024-01-11T04:35:43;22.37;;;10.90;;
5085;SDS011;4715;51.660;7.082;2024-01-11T04:38:06;29.63;;;15.10;;
5085;SDS011;4715;51.660;7.082;2024-01-11T04:40:28;21.27;;;11.37;;
5085;SDS011;4715;51.660;7.082;2024-01-11T04:42:51;25.40;;;12.97;;
5085;SDS011;4715;51.660;7.082;2024-01-11T04:45:13;23.03;;;14.90;;
5085;SDS011;4715;51.660;7.082;2024-01-11T04:47:35;27.83;;;14.03;;
5085;SDS011;4715;51.660;7.082;2024-01-11T04:49:57;26.20;;;13.60;;
5085;SDS011;4715;51.660;7.082;2024-01-11T04:52:19;26.83;;;12.60;;
5085;SDS011;4715;51.660;7.082;2024-01-11T04:54:43;24.97;;;13.30;;
5085;SDS011;4715;51.660;7.082;2024-01-11T04:57:06;26.27;;;12.10;;
5085;SDS011;4715;51.660;7.082;2024-01-11T04:59:28;26.63;;;14.00;;
5085;SDS011;4715;51.660;7.082;2024-01-11T05:01:50;32.60;;;13.53;;
5085;SDS011;4715;51.660;7.082;2024-01-11T05:04:11;28.63;;;15.20;;
5085;SDS011;4715;51.660;7.082;2024-01-11T05:06:35;32.43;;;15.20;;
5085;SDS011;4715;51.660;7.082;2024-01-11T05:08:56;24.00;;;13.97;;
5085;SDS011;4715;51.660;7.082;2024-01-11T05:11:20;26.93;;;15.17;;
5085;SDS011;4715;51.660;7.082;2024-01-11T05:13:44;26.03;;;14.50;;
5085;SDS011;4715;51.660;7.082;2024-01-11T05:16:10;26.10;;;13.70;;
5085;SDS011;4715;51.660;7.082;2024-01-11T05:18:40;25.83;;;13.07;;
5085;SDS011;4715;51.660;7.082;2024-01-11T05:21:02;26.60;;;14.77;;
5085;SDS011;4715;51.660;7.082;2024-01-11T05:23:24;27.13;;;14.40;;
5085;SDS011;4715;51.660;7.082;2024-01-11T05:25:46;29.37;;;14.43;;
5085;SDS011;4715;51.660;7.082;2024-01-11T05:28:15;29.17;;;13.83;;
5085;SDS011;4715;51.660;7.082;2024-01-11T05:30:38;27.93;;;12.93;;
5085;SDS011;4715;51.660;7.082;2024-01-11T05:33:00;26.47;;;13.40;;
5085;SDS011;4715;51.660;7.082;2024-01-11T05:35:22;32.30;;;15.93;;
5085;SDS011;4715;51.660;7.082;2024-01-11T05:37:47;28.10;;;13.20;;
5085;SDS011;4715;51.660;7.082;2024-01-11T05:40:09;23.53;;;12.60;;
5085;SDS011;4715;51.660;7.082;2024-01-11T05:42:31;31.23;;;12.37;;
5085;SDS011;4715;51.660;7.082;2024-01-11T05:44:54;20.00;;;10.87;;
5085;SDS011;4715;51.660;7.082;2024-01-11T05:47:19;27.93;;;14.07;;
5085;SDS011;4715;51.660;7.082;2024-01-11T05:49:41;22.13;;;12.70;;
5085;SDS011;4715;51.660;7.082;2024-01-11T05:52:03;25.40;;;12.50;;
5085;SDS011;4715;51.660;7.082;2024-01-11T05:54:26;21.83;;;13.03;;
5085;SDS011;4715;51.660;7.082;2024-01-11T05:56:48;22.83;;;12.17;;
5085;SDS011;4715;51.660;7.082;2024-01-11T05:59:10;27.83;;;14.33;;
5085;SDS011;4715;51.660;7.082;2024-01-11T06:01:33;19.40;;;10.40;;
5085;SDS011;4715;51.660;7.082;2024-01-11T06:03:54;24.07;;;12.43;;
5085;SDS011;4715;51.660;7.082;2024-01-11T06:06:16;16.13;;;11.10;;
5085;SDS011;4715;51.660;7.082;2024-01-11T06:08:40;25.20;;;12.47;;
5085;SDS011;4715;51.660;7.082;2024-01-11T06:11:03;17.10;;;11.83;;
5085;SDS011;4715;51.660;7.082;2024-01-11T06:13:26;25.30;;;11.60;;
5085;SDS011;4715;51.660;7.082;2024-01-11T06:15:47;25.50;;;11.50;;
5085;SDS011;4715;51.660;7.082;2024-01-11T06:18:11;22.17;;;11.50;;
5085;SDS011;4715;51.660;7.082;2024-01-11T06:20:33;17.33;;;9.73;;
5085;SDS011;4715;51.660;7.082;2024-01-11T06:22:55;23.87;;;12.83;;
5085;SDS011;4715;51.660;7.082;2024-01-11T06:25:17;22.00;;;11.40;;
5085;SDS011;4715;51.660;7.082;2024-01-11T06:27:39;21.90;;;9.93;;
5085;SDS011;4715;51.660;7.082;2024-01-11T06:30:05;24.20;;;12.80;;
5085;SDS011;4715;51.660;7.082;2024-01-11T06:32:28;18.13;;;10.23;;
5085;SDS011;4715;51.660;7.082;2024-01-11T06:34:51;23.47;;;12.47;;
5085;SDS011;4715;51.660;7.082;2024-01-11T06:37:13;16.70;;;10.50;;
5085;SDS011;4715;51.660;7.082;2024-01-11T06:39:34;20.33;;;12.10;;
5085;SDS011;4715;51.660;7.082;2024-01-11T06:41:57;23.03;;;12.07;;
5085;SDS011;4715;51.660;7.082;2024-01-11T06:44:20;25.90;;;12.37;;
5085;SDS011;4715;51.660;7.082;2024-01-11T06:46:41;27.93;;;13.60;;
5085;SDS011;4715;51.660;7.082;2024-01-11T06:49:03;24.17;;;13.07;;
5085;SDS011;4715;51.660;7.082;2024-01-11T06:51:28;23.77;;;11.13;;
5085;SDS011;4715;51.660;7.082;2024-01-11T06:53:49;28.93;;;13.53;;
5085;SDS011;4715;51.660;7.082;2024-01-11T06:56:15;27.10;;;13.00;;
5085;SDS011;4715;51.660;7.082;2024-01-11T06:58:38;24.07;;;11.87;;
5085;SDS011;4715;51.660;7.082;2024-01-11T07:01:00;26.23;;;13.50;;
5085;SDS011;4715;51.660;7.082;2024-01-11T07:03:22;30.33;;;13.40;;
5085;SDS011;4715;51.660;7.082;2024-01-11T07:05:44;25.93;;;13.53;;
5085;SDS011;4715;51.660;7.082;2024-01-11T07:08:08;30.67;;;15.90;;
5085;SDS011;4715;51.660;7.082;2024-01-11T07:10:30;33.57;;;15.17;;
5085;SDS011;4715;51.660;7.082;2024-01-11T07:12:52;29.73;;;14.03;;
5085;SDS011;4715;51.660;7.082;2024-01-11T07:15:15;30.57;;;13.97;;
5085;SDS011;4715;51.660;7.082;2024-01-11T07:17:37;32.47;;;16.07;;
5085;SDS011;4715;51.660;7.082;2024-01-11T07:19:59;26.03;;;13.70;;
5085;SDS011;4715;51.660;7.082;2024-01-11T07:22:23;24.67;;;13.00;;
5085;SDS011;4715;51.660;7.082;2024-01-11T07:24:46;23.20;;;12.50;;
5085;SDS011;4715;51.660;7.082;2024-01-11T07:27:08;28.20;;;13.57;;
5085;SDS011;4715;51.660;7.082;2024-01-11T07:29:30;23.67;;;13.50;;
5085;SDS011;4715;51.660;7.082;2024-01-11T07:31:52;20.67;;;11.77;;
5085;SDS011;4715;51.660;7.082;2024-01-11T07:34:16;24.73;;;13.27;;
5085;SDS011;4715;51.660;7.082;2024-01-11T07:36:38;35.67;;;15.53;;
5085;SDS011;4715;51.660;7.082;2024-01-11T07:39:01;21.43;;;12.40;;
5085;SDS011;4715;51.660;7.082;2024-01-11T07:41:27;32.10;;;13.97;;
5085;SDS011;4715;51.660;7.082;2024-01-11T07:43:49;23.87;;;12.47;;
5085;SDS011;4715;51.660;7.082;2024-01-11T07:46:10;24.23;;;12.80;;
5085;SDS011;4715;51.660;7.082;2024-01-11T07:48:33;18.43;;;12.43;;
5085;SDS011;4715;51.660;7.082;2024-01-11T07:50:55;28.07;;;13.80;;
5085;SDS011;4715;51.660;7.082;2024-01-11T07:53:22;22.47;;;12.50;;
5085;SDS011;4715;51.660;7.082;2024-01-11T07:55:48;21.20;;;12.43;;
5085;SDS011;4715;51.660;7.082;2024-01-11T07:58:14;29.80;;;13.43;;
5085;SDS011;4715;51.660;7.082;2024-01-11T08:00:38;24.00;;;12.80;;
5085;SDS011;4715;51.660;7.082;2024-01-11T08:03:00;21.93;;;11.97;;
5085;SDS011;4715;51.660;7.082;2024-01-11T08:05:22;29.20;;;12.53;;
5085;SDS011;4715;51.660;7.082;2024-01-11T08:07:45;22.07;;;13.23;;
5085;SDS011;4715;51.660;7.082;2024-01-11T08:10:07;22.90;;;13.43;;
5085;SDS011;4715;51.660;7.082;2024-01-11T08:12:31;20.93;;;11.93;;
5085;SDS011;4715;51.660;7.082;2024-01-11T08:14:55;21.90;;;14.17;;
5085;SDS011;4715;51.660;7.082;2024-01-11T08:17:18;19.17;;;11.33;;
5085;SDS011;4715;51.660;7.082;2024-01-11T08:19:41;18.73;;;11.37;;
5085;SDS011;4715;51.660;7.082;2024-01-11T08:22:03;23.33;;;11.93;;
5085;SDS011;4715;51.660;7.082;2024-01-11T08:24:25;17.70;;;11.97;;
5085;SDS011;4715;51.660;7.082;2024-01-11T08:26:47;27.47;;;13.40;;
5085;SDS011;4715;51.660;7.082;2024-01-11T08:29:09;24.80;;;11.50;;
5085;SDS011;4715;51.660;7.082;2024-01-11T08:31:33;19.00;;;11.60;;
5085;SDS011;4715;51.660;7.082;2024-01-11T08:33:57;23.63;;;12.53;;
5085;SDS011;4715;51.660;7.082;2024-01-11T08:36:19;20.07;;;11.70;;
5085;SDS011;4715;51.660;7.082;2024-01-11T08:38:42;24.57;;;13.00;;
5085;SDS011;4715;51.660;7.082;2024-01-11T08:41:04;20.87;;;11.90;;
5085;SDS011;4715;51.660;7.082;2024-01-11T08:43:26;21.40;;;11.97;;
5085;SDS011;4715;51.660;7.082;2024-01-11T08:45:51;25.60;;;12.23;;
5085;SDS011;4715;51.660;7.082;2024-01-11T08:48:14;23.00;;;13.13;;
5085;SDS011;4715;51.660;7.082;2024-01-11T08:50:37;22.90;;;12.10;;
5085;SDS011;4715;51.660;7.082;2024-01-11T08:53:02;21.20;;;12.80;;
5085;SDS011;4715;51.660;7.082;2024-01-11T08:55:27;27.80;;;13.37;;
5085;SDS011;4715;51.660;7.082;2024-01-11T08:57:52;26.20;;;13.70;;
5085;SDS011;4715;51.660;7.082;2024-01-11T09:00:15;23.27;;;13.10;;
5085;SDS011;4715;51.660;7.082;2024-01-11T09:02:38;33.00;;;15.73;;
5085;SDS011;4715;51.660;7.082;2024-01-11T09:05:01;26.93;;;15.40;;
5085;SDS011;4715;51.660;7.082;2024-01-11T09:07:27;22.83;;;13.50;;
5085;SDS011;4715;51.660;7.082;2024-01-11T09:09:57;28.63;;;15.93;;
5085;SDS011;4715;51.660;7.082;2024-01-11T09:12:22;29.50;;;14.97;;
5085;SDS011;4715;51.660;7.082;2024-01-11T09:14:44;22.20;;;13.20;;
5085;SDS011;4715;51.660;7.082;2024-01-11T09:17:06;21.27;;;13.13;;
5085;SDS011;4715;51.660;7.082;2024-01-11T09:19:30;27.63;;;13.93;;
5085;SDS011;4715;51.660;7.082;2024-01-11T09:21:55;26.83;;;15.53;;
5085;SDS011;4715;51.660;7.082;2024-01-11T09:24:17;24.90;;;13.40;;
5085;SDS011;4715;51.660;7.082;2024-01-11T09:26:39;27.77;;;13.87;;
5085;SDS011;4715;51.660;7.082;2024-01-11T09:29:01;26.10;;;14.10;;
5085;SDS011;4715;51.660;7.082;2024-01-11T09:31:23;31.00;;;15.30;;
5085;SDS011;4715;51.660;7.082;2024-01-11T09:33:47;28.50;;;15.77;;
5085;SDS011;4715;51.660;7.082;2024-01-11T09:36:10;35.13;;;16.23;;
5085;SDS011;4715;51.660;7.082;2024-01-11T09:38:34;31.43;;;15.27;;
5085;SDS011;4715;51.660;7.082;2024-01-11T09:40:59;28.77;;;14.67;;
5085;SDS011;4715;51.660;7.082;2024-01-11T09:43:28;33.07;;;15.67;;
5085;SDS011;4715;51.660;7.082;2024-01-11T09:45:50;27.47;;;15.70;;
5085;SDS011;4715;51.660;7.082;2024-01-11T09:48:19;29.07;;;16.77;;
5085;SDS011;4715;51.660;7.082;2024-01-11T09:50:43;32.13;;;15.67;;
5085;SDS011;4715;51.660;7.082;2024-01-11T09:53:07;24.93;;;14.70;;
5085;SDS011;4715;51.660;7.082;2024-01-11T09:55:31;26.33;;;14.90;;
5085;SDS011;4715;51.660;7.082;2024-01-11T09:57:55;33.83;;;17.10;;
5085;SDS011;4715;51.660;7.082;2024-01-11T10:00:22;32.30;;;17.10;;
5085;SDS011;4715;51.660;7.082;2024-01-11T10:02:45;34.43;;;15.97;;
5085;SDS011;4715;51.660;7.082;2024-01-11T10:05:08;30.77;;;15.87;;
5085;SDS011;4715;51.660;7.082;2024-01-11T10:07:31;36.90;;;16.83;;
5085;SDS011;4715;51.660;7.082;2024-01-11T10:09:55;28.97;;;14.93;;
5085;SDS011;4715;51.660;7.082;2024-01-11T10:12:19;29.80;;;15.17;;
5085;SDS011;4715;51.660;7.082;2024-01-11T10:14:45;30.13;;;15.00;;
5085;SDS011;4715;51.660;7.082;2024-01-11T10:17:07;31.43;;;16.20;;
5085;SDS011;4715;51.660;7.082;2024-01-11T10:19:29;29.37;;;16.27;;
5085;SDS011;4715;51.660;7.082;2024-01-11T10:21:51;29.13;;;16.57;;
5085;SDS011;4715;51.660;7.082;2024-01-11T10:24:17;30.00;;;16.10;;
5085;SDS011;4715;51.660;7.082;2024-01-11T10:26:40;30.30;;;16.57;;
5085;SDS011;4715;51.660;7.082;2024-01-11T10:29:06;25.30;;;15.80;;
5085;SDS011;4715;51.660;7.082;2024-01-11T10:31:30;25.50;;;15.93;;
5085;SDS011;4715;51.660;7.082;2024-01-11T10:33:55;32.97;;;17.60;;
5085;SDS011;4715;51.660;7.082;2024-01-11T10:36:18;32.10;;;17.83;;
5085;SDS011;4715;51.660;7.082;2024-01-11T10:38:40;29.60;;;15.20;;
5085;SDS011;4715;51.660;7.082;2024-01-11T10:41:04;27.57;;;15.73;;
5085;SDS011;4715;51.660;7.082;2024-01-11T10:43:26;28.37;;;15.67;;
5085;SDS011;4715;51.660;7.082;2024-01-11T10:45:52;26.73;;;13.77;;
5085;SDS011;4715;51.660;7.082;2024-01-11T10:48:23;28.50;;;15.23;;
5085;SDS011;4715;51.660;7.082;2024-01-11T10:50:48;27.27;;;14.43;;
5085;SDS011;4715;51.660;7.082;2024-01-11T10:53:20;23.80;;;13.67;;
5085;SDS011;4715;51.660;7.082;2024-01-11T10:55:48;22.13;;;12.40;;
5085;SDS011;4715;51.660;7.082;2024-01-11T10:58:11;21.77;;;13.73;;
5085;SDS011;4715;51.660;7.082;2024-01-11T11:00:34;20.03;;;13.00;;
5085;SDS011;4715;51.660;7.082;2024-01-11T11:02:58;25.90;;;12.60;;
5085;SDS011;4715;51.660;7.082;2024-01-11T11:05:21;23.33;;;13.00;;
5085;SDS011;4715;51.660;7.082;2024-01-11T11:07:44;20.10;;;12.37;;
5085;SDS011;4715;51.660;7.082;2024-01-11T11:10:07;22.30;;;13.13;;
5085;SDS011;4715;51.660;7.082;2024-01-11T11:12:31;19.67;;;11.70;;
5085;SDS011;4715;51.660;7.082;2024-01-11T11:14:55;28.70;;;12.90;;
5085;SDS011;4715;51.660;7.082;2024-01-11T11:17:19;21.67;;;13.27;;
5085;SDS011;4715;51.660;7.082;2024-01-11T11:19:45;24.33;;;12.10;;
5085;SDS011;4715;51.660;7.082;2024-01-11T11:22:07;23.13;;;12.47;;
5085;SDS011;4715;51.660;7.082;2024-01-11T11:24:29;19.50;;;11.87;;
5085;SDS011;4715;51.660;7.082;2024-01-11T11:26:54;19.50;;;11.47;;
5085;SDS011;4715;51.660;7.082;2024-01-11T11:29:17;19.73;;;12.30;;
5085;SDS011;4715;51.660;7.082;2024-01-11T11:31:41;21.00;;;11.60;;
5085;SDS011;4715;51.660;7.082;2024-01-11T11:34:07;24.40;;;13.43;;
5085;SDS011;4715;51.660;7.082;2024-01-11T11:36:34;24.53;;;13.23;;
5085;SDS011;4715;51.660;7.082;2024-01-11T11:38:56;23.03;;;11.30;;
5085;SDS011;4715;51.660;7.082;2024-01-11T11:41:21;22.30;;;12.93;;
5085;SDS011;4715;51.660;7.082;2024-01-11T11:43:47;22.47;;;13.63;;
5085;SDS011;4715;51.660;7.082;2024-01-11T11:46:09;27.57;;;11.57;;
5085;SDS011;4715;51.660;7.082;2024-01-11T11:48:50;21.07;;;13.93;;
5085;SDS011;4715;51.660;7.082;2024-01-11T11:51:13;16.60;;;11.27;;
5085;SDS011;4715;51.660;7.082;2024-01-11T11:53:39;19.83;;;11.20;;
5085;SDS011;4715;51.660;7.082;2024-01-11T11:56:04;22.37;;;13.57;;
5085;SDS011;4715;51.660;7.082;2024-01-11T11:58:27;18.70;;;11.97;;
5085;SDS011;4715;51.660;7.082;2024-01-11T12:00:49;21.73;;;13.00;;
5085;SDS011;4715;51.660;7.082;2024-01-11T12:03:12;24.00;;;13.23;;
5085;SDS011;4715;51.660;7.082;2024-01-11T12:05:37;27.83;;;14.10;;
5085;SDS011;4715;51.660;7.082;2024-01-11T12:08:00;22.93;;;14.03;;
5085;SDS011;4715;51.660;7.082;2024-01-11T12:10:24;21.20;;;13.43;;
5085;SDS011;4715;51.660;7.082;2024-01-11T12:12:46;21.07;;;14.27;;
5085;SDS011;4715;51.660;7.082;2024-01-11T12:15:11;23.70;;;13.93;;
5085;SDS011;4715;51.660;7.082;2024-01-11T12:17:34;23.73;;;14.03;;
5085;SDS011;4715;51.660;7.082;2024-01-11T12:19:56;23.03;;;14.00;;
5085;SDS011;4715;51.660;7.082;2024-01-11T12:22:18;18.57;;;12.20;;
5085;SDS011;4715;51.660;7.082;2024-01-11T12:24:40;20.97;;;12.33;;
5085;SDS011;4715;51.660;7.082;2024-01-11T12:27:05;23.73;;;13.57;;
5085;SDS011;4715;51.660;7.082;2024-01-11T12:29:28;21.10;;;13.67;;
5085;SDS011;4715;51.660;7.082;2024-01-11T12:31:51;19.83;;;11.70;;
5085;SDS011;4715;51.660;7.082;2024-01-11T12:34:14;23.40;;;13.57;;
5085;SDS011;4715;51.660;7.082;2024-01-11T12:36:37;20.07;;;12.57;;
5085;SDS011;4715;51.660;7.082;2024-01-11T12:39:00;23.17;;;13.60;;
5085;SDS011;4715;51.660;7.082;2024-01-11T12:41:24;21.23;;;12.27;;
5085;SDS011;4715;51.660;7.082;2024-01-11T12:43:47;19.50;;;12.70;;
5085;SDS011;4715;51.660;7.082;2024-01-11T12:46:09;19.57;;;10.57;;
5085;SDS011;4715;51.660;7.082;2024-01-11T12:48:31;19.13;;;12.40;;
5085;SDS011;4715;51.660;7.082;2024-01-11T12:50:53;19.03;;;11.40;;
5085;SDS011;4715;51.660;7.082;2024-01-11T12:53:16;17.47;;;10.10;;
5085;SDS011;4715;51.660;7.082;2024-01-11T12:55:39;13.23;;;9.17;;
5085;SDS011;4715;51.660;7.082;2024-01-11T12:58:04;14.83;;;9.03;;
5085;SDS011;4715;51.660;7.082;2024-01-11T13:00:29;23.13;;;9.80;;
5085;SDS011;4715;51.660;7.082;2024-01-11T13:02:51;22.00;;;11.20;;
5085;SDS011;4715;51.660;7.082;2024-01-11T13:05:13;16.60;;;9.30;;
5085;SDS011;4715;51.660;7.082;2024-01-11T13:07:47;15.63;;;8.53;;
5085;SDS011;4715;51.660;7.082;2024-01-11T13:10:10;16.17;;;8.73;;
5085;SDS011;4715;51.660;7.082;2024-01-11T13:12:31;13.13;;;8.17;;
5085;SDS011;4715;51.660;7.082;2024-01-11T13:14:55;17.63;;;9.27;;
5085;SDS011;4715;51.660;7.082;2024-01-11T13:17:20;14.17;;;9.10;;
5085;SDS011;4715;51.660;7.082;2024-01-11T13:19:42;11.80;;;7.43;;
5085;SDS011;4715;51.660;7.082;2024-01-11T13:22:03;13.67;;;9.63;;
5085;SDS011;4715;51.660;7.082;2024-01-11T13:24:26;13.53;;;8.17;;
5085;SDS011;4715;51.660;7.082;2024-01-11T13:26:50;12.93;;;8.27;;
5085;SDS011;4715;51.660;7.082;2024-01-11T13:29:13;16.23;;;7.80;;
5085;SDS011;4715;51.660;7.082;2024-01-11T13:31:42;12.60;;;7.57;;
5085;SDS011;4715;51.660;7.082;2024-01-11T13:34:12;13.23;;;7.00;;
5085;SDS011;4715;51.660;7.082;2024-01-11T13:36:34;11.17;;;7.10;;
5085;SDS011;4715;51.660;7.082;2024-01-11T13:38:56;10.77;;;7.13;;
5085;SDS011;4715;51.660;7.082;2024-01-11T13:41:18;10.90;;;5.70;;
5085;SDS011;4715;51.660;7.082;2024-01-11T13:43:40;5.10;;;4.13;;
5085;SDS011;4715;51.660;7.082;2024-01-11T13:46:02;6.40;;;4.20;;
5085;SDS011;4715;51.660;7.082;2024-01-11T13:48:24;6.37;;;4.03;;
5085;SDS011;4715;51.660;7.082;2024-01-11T13:50:51;5.17;;;3.00;;
5085;SDS011;4715;51.660;7.082;2024-01-11T13:53:13;4.60;;;3.13;;
5085;SDS011;4715;51.660;7.082;2024-01-11T13:55:40;2.97;;;2.13;;
5085;SDS011;4715;51.660;7.082;2024-01-11T13:58:02;3.43;;;3.13;;
5085;SDS011;4715;51.660;7.082;2024-01-11T14:00:31;4.70;;;2.87;;
5085;SDS011;4715;51.660;7.082;2024-01-11T14:02:54;2.57;;;2.27;;
5085;SDS011;4715;51.660;7.082;2024-01-11T14:05:18;2.80;;;2.60;;
5085;SDS011;4715;51.660;7.082;2024-01-11T14:07:41;2.50;;;2.37;;
5085;SDS011;4715;51.660;7.082;2024-01-11T14:10:05;1.93;;;1.80;;
5085;SDS011;4715;51.660;7.082;2024-01-11T14:12:28;2.90;;;2.67;;
5085;SDS011;4715;51.660;7.082;2024-01-11T14:14:50;2.97;;;2.10;;
5085;SDS011;4715;51.660;7.082;2024-01-11T14:17:13;2.57;;;2.37;;
5085;SDS011;4715;51.660;7.082;2024-01-11T14:19:37;2.73;;;2.50;;
5085;SDS011;4715;51.660;7.082;2024-01-11T14:21:58;3.20;;;2.37;;
5085;SDS011;4715;51.660;7.082;2024-01-11T14:24:24;2.93;;;2.27;;